createdAt,value
2023-04-19T00:00:09.329Z,53.50
2023-04-19T00:02:37.952Z,53.50
2023-04-19T00:05:07.209Z,53.50
2023-04-19T00:07:36.796Z,53.60
2023-04-19T00:10:05.151Z,53.50
2023-04-19T00:12:33.188Z,53.50
2023-04-19T00:15:01.263Z,53.60
2023-04-19T00:17:29.711Z,53.50
2023-04-19T00:19:58.114Z,53.70
2023-04-19T00:22:26.797Z,53.60
2023-04-19T00:24:56.242Z,53.70
2023-04-19T00:27:24.515Z,53.70
2023-04-19T00:29:52.558Z,53.70
2023-04-19T00:32:20.817Z,53.80
2023-04-19T00:34:48.942Z,53.80
2023-04-19T00:37:17.370Z,53.80
2023-04-19T00:39:45.888Z,53.80
2023-04-19T00:42:15.393Z,53.80
2023-04-19T00:44:43.727Z,53.80
2023-04-19T00:47:12.217Z,53.80
2023-04-19T00:49:40.498Z,53.80
2023-04-19T00:52:09.277Z,53.80
2023-04-19T00:54:38.528Z,53.80
2023-04-19T00:57:06.959Z,53.70
2023-04-19T00:59:36.729Z,53.70
2023-04-19T01:02:04.816Z,53.80
2023-04-19T01:04:33.340Z,53.80
2023-04-19T01:07:02.736Z,53.70
2023-04-19T01:09:31.045Z,53.80
2023-04-19T01:11:59.074Z,53.90
2023-04-19T01:14:27.149Z,53.90
2023-04-19T01:16:57.958Z,53.90
2023-04-19T01:19:26.834Z,53.90
2023-04-19T01:21:56.407Z,53.90
2023-04-19T01:24:25.984Z,53.90
2023-04-19T01:26:54.018Z,54.00
2023-04-19T01:29:22.557Z,54.00
2023-04-19T01:31:54.019Z,54.00
2023-04-19T01:34:23.166Z,54.50
2023-04-19T01:36:51.455Z,54.00
2023-04-19T01:39:19.625Z,54.00
2023-04-19T01:41:49.031Z,53.90
2023-04-19T01:44:17.256Z,54.00
2023-04-19T01:46:45.752Z,53.90
2023-04-19T01:49:13.859Z,54.00
2023-04-19T01:51:42.071Z,54.00
2023-04-19T01:54:10.112Z,54.00
2023-04-19T01:56:38.200Z,54.00
2023-04-19T01:59:07.644Z,54.00
2023-04-19T02:01:35.724Z,53.90
2023-04-19T02:04:04.205Z,53.90
2023-04-19T02:06:32.810Z,53.90
2023-04-19T02:09:00.901Z,53.90
2023-04-19T02:11:29.019Z,53.90
2023-04-19T02:13:57.098Z,53.90
2023-04-19T02:16:26.544Z,53.90
2023-04-19T02:18:54.619Z,53.90
2023-04-19T02:21:22.686Z,53.90
2023-04-19T02:23:50.799Z,53.90
2023-04-19T02:26:19.006Z,53.90
2023-04-19T02:28:47.056Z,54.00
2023-04-19T02:31:15.163Z,54.00
2023-04-19T02:33:46.711Z,54.00
2023-04-19T02:36:14.774Z,54.00
2023-04-19T02:38:42.861Z,53.80
2023-04-19T02:41:10.987Z,54.00
2023-04-19T02:43:39.034Z,53.90
2023-04-19T02:46:07.253Z,53.90
2023-04-19T02:48:35.324Z,54.00
2023-04-19T02:51:06.030Z,54.00
2023-04-19T02:53:34.529Z,54.00
2023-04-19T02:56:03.743Z,54.10
2023-04-19T02:58:31.785Z,54.10
2023-04-19T03:00:59.860Z,54.10
2023-04-19T03:03:28.142Z,54.10
2023-04-19T03:05:56.255Z,54.10
2023-04-19T03:08:25.764Z,54.00
2023-04-19T03:10:53.850Z,54.10
2023-04-19T03:13:22.129Z,54.10
2023-04-19T03:15:50.192Z,54.20
2023-04-19T03:18:18.331Z,54.20
2023-04-19T03:20:46.477Z,54.10
2023-04-19T03:23:14.534Z,54.20
2023-04-19T03:25:43.992Z,54.20
2023-04-19T03:28:12.024Z,54.10
2023-04-19T03:30:40.096Z,54.10
2023-04-19T03:33:08.218Z,54.20
2023-04-19T03:35:36.272Z,54.20
2023-04-19T03:38:04.367Z,54.20
2023-04-19T03:40:34.343Z,54.80
2023-04-19T03:43:03.770Z,54.30
2023-04-19T03:45:31.893Z,54.30
2023-04-19T03:48:02.620Z,54.40
2023-04-19T03:50:31.202Z,54.40
2023-04-19T03:52:59.240Z,54.40
2023-04-19T03:55:27.385Z,54.40
2023-04-19T03:57:55.540Z,54.50
2023-04-19T04:00:26.237Z,54.40
2023-04-19T04:02:54.606Z,54.50
2023-04-19T04:05:23.115Z,54.50
2023-04-19T04:07:51.196Z,54.50
2023-04-19T04:10:19.274Z,54.50
2023-04-19T04:12:47.305Z,54.60
2023-04-19T04:15:15.394Z,54.60
2023-04-19T04:17:44.897Z,54.70
2023-04-19T04:20:14.030Z,54.80
2023-04-19T04:22:43.189Z,54.80
2023-04-19T04:25:12.555Z,54.80
2023-04-19T04:27:40.625Z,54.90
2023-04-19T04:30:09.977Z,55.00
2023-04-19T04:32:38.347Z,55.00
2023-04-19T04:35:09.373Z,55.00
2023-04-19T04:37:37.781Z,55.00
2023-04-19T04:40:06.805Z,55.00
2023-04-19T04:42:35.634Z,55.00
2023-04-19T04:45:03.893Z,55.00
2023-04-19T04:47:35.532Z,55.00
2023-04-19T04:50:04.307Z,55.00
2023-04-19T04:52:33.725Z,55.10
2023-04-19T04:55:01.876Z,55.10
2023-04-19T04:57:29.920Z,55.10
2023-04-19T04:59:58.026Z,55.10
2023-04-19T05:02:26.339Z,55.00
2023-04-19T05:04:54.531Z,55.00
2023-04-19T05:07:22.638Z,55.10
2023-04-19T05:09:52.041Z,55.20
2023-04-19T05:12:20.073Z,55.20
2023-04-19T05:14:48.133Z,55.10
2023-04-19T05:17:16.242Z,55.10
2023-04-19T05:19:44.468Z,55.10
2023-04-19T05:22:12.596Z,55.10
2023-04-19T05:24:42.420Z,55.10
2023-04-19T05:27:12.328Z,55.10
2023-04-19T05:29:40.445Z,55.20
2023-04-19T05:32:08.757Z,55.20
2023-04-19T05:34:37.980Z,55.20
2023-04-19T05:37:06.831Z,55.80
2023-04-19T05:39:34.945Z,55.20
2023-04-19T05:42:03.034Z,55.30
2023-04-19T05:44:32.887Z,55.40
2023-04-19T05:47:01.254Z,55.30
2023-04-19T05:49:29.345Z,55.50
2023-04-19T05:51:57.398Z,55.40
2023-04-19T05:54:25.504Z,55.40
2023-04-19T05:56:53.622Z,55.30
2023-04-19T05:59:21.686Z,55.30
2023-04-19T06:01:51.146Z,55.20
2023-04-19T06:04:19.679Z,55.00
2023-04-19T06:06:47.998Z,55.00
2023-04-19T06:09:18.149Z,55.00
2023-04-19T06:11:50.955Z,55.10
2023-04-19T06:14:20.041Z,55.20
2023-04-19T06:16:48.380Z,55.20
2023-04-19T06:19:17.820Z,55.10
2023-04-19T06:21:46.028Z,55.10
2023-04-19T06:24:14.338Z,55.00
2023-04-19T06:26:43.218Z,54.90
2023-04-19T06:29:11.369Z,54.90
2023-04-19T06:31:39.609Z,54.80
2023-04-19T06:34:07.757Z,54.80
2023-04-19T06:36:37.168Z,54.70
2023-04-19T06:39:05.235Z,54.50
2023-04-19T06:41:33.328Z,54.50
2023-04-19T06:44:01.371Z,54.40
2023-04-19T06:46:29.593Z,54.40
2023-04-19T06:48:57.674Z,54.40
2023-04-19T06:51:25.958Z,54.40
2023-04-19T06:53:55.403Z,54.30
2023-04-19T06:56:42.161Z,54.30
2023-04-19T06:59:10.195Z,54.20
2023-04-19T07:01:38.342Z,54.20
2023-04-19T07:04:07.750Z,54.20
2023-04-19T07:06:36.400Z,54.20
2023-04-19T07:09:07.084Z,54.20
2023-04-19T07:11:35.465Z,54.00
2023-04-19T07:14:03.918Z,54.00
2023-04-19T07:16:32.310Z,53.80
2023-04-19T07:19:00.456Z,53.80
2023-04-19T07:21:33.203Z,53.60
2023-04-19T07:24:01.399Z,53.50
2023-04-19T07:26:31.096Z,53.50
2023-04-19T07:28:59.212Z,53.40
2023-04-19T07:31:28.301Z,53.30
2023-04-19T07:33:56.422Z,53.10
2023-04-19T07:36:24.513Z,53.00
2023-04-19T07:38:52.590Z,52.90
2023-04-19T07:41:20.758Z,52.70
2023-04-19T07:43:50.179Z,52.60
2023-04-19T07:46:18.803Z,52.50
2023-04-19T07:48:47.250Z,52.40
2023-04-19T07:51:17.450Z,52.30
2023-04-19T07:53:45.538Z,52.30
2023-04-19T07:56:14.344Z,52.30
2023-04-19T07:58:43.017Z,52.30
2023-04-19T08:01:13.414Z,52.10
2023-04-19T08:03:42.169Z,51.80
2023-04-19T08:06:10.816Z,51.70
2023-04-19T08:08:39.056Z,51.70
2023-04-19T08:11:07.275Z,51.70
2023-04-19T08:13:36.065Z,51.50
2023-04-19T08:16:32.317Z,51.40
2023-04-19T08:18:53.739Z,51.20
2023-04-19T08:21:26.070Z,51.10
2023-04-19T08:23:59.374Z,50.90
2023-04-19T08:26:27.505Z,50.90
2023-04-19T08:28:55.594Z,50.90
2023-04-19T08:31:23.774Z,50.60
2023-04-19T08:33:53.355Z,50.30
2023-04-19T08:36:35.517Z,50.20
2023-04-19T08:39:12.564Z,50.00
2023-04-19T08:41:44.880Z,50.00
2023-04-19T08:44:17.731Z,50.00
2023-04-19T08:46:51.384Z,49.90
2023-04-19T08:49:21.816Z,50.00
2023-04-19T08:51:51.300Z,49.90
2023-04-19T08:54:20.771Z,49.90
2023-04-19T08:56:48.926Z,49.80
2023-04-19T08:59:20.258Z,49.90
2023-04-19T09:01:48.736Z,49.90
2023-04-19T09:04:35.437Z,49.90
2023-04-19T09:07:05.658Z,50.00
2023-04-19T09:09:39.121Z,49.80
2023-04-19T09:12:18.732Z,49.60
2023-04-19T09:17:19.703Z,49.10
2023-04-19T09:19:48.204Z,49.20
2023-04-19T09:22:18.068Z,49.20
2023-04-19T09:25:22.548Z,48.90
2023-04-19T09:27:36.471Z,48.80
2023-04-19T09:30:06.729Z,48.80
2023-04-19T09:32:48.017Z,48.60
2023-04-19T09:35:16.663Z,48.40
2023-04-19T09:38:05.833Z,48.30
2023-04-19T09:40:35.102Z,48.00
2023-04-19T09:45:43.513Z,47.90
2023-04-19T09:48:13.136Z,47.60
2023-04-19T09:50:58.838Z,47.20
2023-04-19T09:53:34.284Z,46.50
2023-04-19T09:56:04.217Z,46.70
2023-04-19T09:58:48.976Z,46.80
2023-04-19T10:01:22.024Z,46.50
2023-04-19T10:03:52.525Z,46.20
2023-04-19T10:08:56.334Z,45.70
2023-04-19T10:11:27.631Z,45.20
2023-04-19T10:14:00.183Z,44.90
2023-04-19T10:16:28.563Z,44.50
2023-04-19T10:18:57.344Z,44.10
2023-04-19T10:21:27.849Z,43.70
2023-04-19T10:23:58.211Z,43.40
2023-04-19T10:26:26.548Z,43.20
2023-04-19T10:28:57.153Z,43.10
2023-04-19T10:31:27.858Z,42.70
2023-04-19T10:33:57.639Z,42.40
2023-04-19T10:36:29.806Z,42.20
2023-04-19T10:38:59.296Z,41.70
2023-04-19T10:42:00.030Z,41.30
2023-04-19T10:44:28.107Z,40.80
2023-04-19T10:46:56.191Z,40.80
2023-04-19T10:49:25.002Z,40.90
2023-04-19T10:51:54.847Z,39.80
2023-04-19T10:54:37.532Z,39.40
2023-04-19T10:57:06.310Z,38.80
2023-04-19T10:59:35.341Z,38.90
2023-04-19T11:02:04.992Z,38.50
2023-04-19T11:05:04.267Z,38.20
2023-04-19T11:07:42.412Z,37.40
2023-04-19T11:10:12.853Z,37.40
2023-04-19T11:12:44.942Z,37.80
2023-04-19T11:15:13.104Z,36.70
2023-04-19T11:17:42.504Z,36.30
2023-04-19T11:20:12.012Z,35.70
2023-04-19T11:25:13.181Z,34.50
2023-04-19T11:27:42.957Z,34.80
2023-04-19T11:30:12.830Z,34.70
2023-04-19T11:32:46.998Z,35.00
2023-04-19T11:35:15.668Z,35.50
2023-04-19T11:37:43.728Z,35.90
2023-04-19T11:40:16.692Z,35.70
2023-04-19T11:42:58.246Z,34.90
2023-04-19T11:46:00.104Z,34.50
2023-04-19T11:48:28.135Z,34.70
2023-04-19T11:51:00.333Z,34.60
2023-04-19T11:53:29.882Z,34.30
2023-04-19T11:56:14.954Z,33.90
2023-04-19T11:58:53.075Z,33.40
2023-04-19T12:01:29.313Z,33.50
2023-04-19T12:04:21.319Z,33.70
2023-04-19T12:07:26.344Z,34.10
2023-04-19T12:09:55.811Z,34.70
2023-04-19T12:12:34.684Z,34.80
2023-04-19T12:15:02.807Z,34.30
2023-04-19T12:17:31.014Z,34.90
2023-04-19T12:19:59.152Z,34.10
2023-04-19T12:22:27.263Z,34.60
2023-04-19T12:24:56.246Z,33.60
2023-04-19T12:27:25.727Z,33.50
2023-04-19T12:29:55.504Z,33.30
2023-04-19T12:32:23.692Z,33.00
2023-04-19T12:34:51.903Z,33.10
2023-04-19T12:37:20.102Z,33.20
2023-04-19T12:39:48.206Z,33.50
2023-04-19T12:42:16.360Z,33.50
2023-04-19T12:44:44.409Z,33.70
2023-04-19T12:47:13.987Z,34.10
2023-04-19T12:49:42.089Z,34.20
2023-04-19T12:52:10.132Z,34.40
2023-04-19T12:54:38.195Z,34.70
2023-04-19T12:57:06.237Z,34.70
2023-04-19T12:59:34.268Z,34.60
2023-04-19T13:02:02.490Z,34.70
2023-04-19T13:04:32.070Z,35.10
2023-04-19T13:07:00.522Z,35.50
2023-04-19T13:09:29.081Z,35.80
2023-04-19T13:11:57.761Z,36.00
2023-04-19T13:14:27.544Z,36.30
2023-04-19T13:16:55.778Z,36.30
2023-04-19T13:19:23.810Z,36.20
2023-04-19T13:21:53.272Z,36.00
2023-04-19T13:24:21.372Z,36.10
2023-04-19T13:26:49.552Z,36.30
2023-04-19T13:29:17.618Z,37.00
2023-04-19T13:31:47.166Z,36.40
2023-04-19T13:34:15.610Z,36.50
2023-04-19T13:36:43.854Z,36.70
2023-04-19T13:39:13.317Z,36.80
2023-04-19T13:41:41.390Z,36.80
2023-04-19T13:44:09.544Z,36.90
2023-04-19T13:46:37.735Z,36.80
2023-04-19T13:49:05.803Z,36.90
2023-04-19T13:51:46.522Z,36.90
2023-04-19T13:54:20.437Z,37.00
2023-04-19T13:56:51.916Z,37.00
2023-04-19T13:59:20.874Z,37.20
2023-04-19T14:01:49.071Z,37.30
2023-04-19T14:04:17.539Z,37.70
2023-04-19T14:06:46.063Z,37.70
2023-04-19T14:09:14.114Z,37.80
2023-04-19T14:11:43.597Z,37.80
2023-04-19T14:14:11.641Z,38.00
2023-04-19T14:16:39.732Z,37.80
2023-04-19T14:19:07.840Z,37.80
2023-04-19T14:21:36.095Z,37.90
2023-04-19T14:24:04.457Z,37.90
2023-04-19T14:26:32.519Z,37.70
2023-04-19T14:29:01.963Z,37.80
2023-04-19T14:31:30.308Z,37.80
2023-04-19T14:33:59.693Z,37.90
2023-04-19T14:36:27.924Z,38.10
2023-04-19T14:38:56.037Z,38.10
2023-04-19T14:41:24.620Z,38.10
2023-04-19T14:43:53.035Z,38.20
2023-04-19T14:46:22.559Z,38.20
2023-04-19T14:49:07.404Z,38.20
2023-04-19T14:51:49.487Z,38.30
2023-04-19T14:54:17.660Z,38.40
2023-04-19T14:56:59.349Z,38.70
2023-04-19T14:59:43.868Z,38.70
2023-04-19T15:02:13.804Z,38.80
2023-04-19T15:04:42.362Z,39.40
2023-04-19T15:07:10.973Z,38.90
2023-04-19T15:09:40.281Z,38.80
2023-04-19T15:12:08.479Z,38.80
2023-04-19T15:14:36.930Z,38.80
2023-04-19T15:17:05.833Z,38.80
2023-04-19T15:19:35.255Z,38.80
2023-04-19T15:22:04.146Z,38.90
2023-04-19T15:24:32.830Z,39.00
2023-04-19T15:27:01.558Z,39.00
2023-04-19T15:29:29.729Z,39.10
2023-04-19T15:31:57.901Z,39.20
2023-04-19T15:34:26.018Z,39.20
2023-04-19T15:36:55.680Z,39.30
2023-04-19T15:39:23.742Z,39.20
2023-04-19T15:41:51.914Z,39.40
2023-04-19T15:44:20.072Z,39.30
2023-04-19T15:46:48.197Z,39.40
2023-04-19T15:49:16.510Z,39.40
2023-04-19T15:51:44.976Z,39.50
2023-04-19T15:54:15.736Z,39.50
2023-04-19T15:56:43.824Z,39.60
2023-04-19T15:59:11.920Z,39.70
2023-04-19T16:01:40.009Z,39.90
2023-04-19T16:04:08.261Z,39.80
2023-04-19T16:06:36.600Z,39.90
2023-04-19T16:09:04.714Z,40.00
2023-04-19T16:11:34.309Z,40.00
2023-04-19T16:14:02.356Z,40.20
2023-04-19T16:16:33.073Z,40.20
2023-04-19T16:19:01.618Z,40.30
2023-04-19T16:21:29.706Z,40.30
2023-04-19T16:23:57.767Z,40.40
2023-04-19T16:26:25.850Z,40.50
2023-04-19T16:28:55.328Z,40.40
2023-04-19T16:31:23.459Z,40.60
2023-04-19T16:33:51.537Z,40.60
2023-04-19T16:36:19.599Z,40.80
2023-04-19T16:38:47.915Z,40.90
2023-04-19T16:41:15.992Z,40.90
2023-04-19T16:43:44.141Z,41.00
2023-04-19T16:46:13.613Z,41.00
2023-04-19T16:48:41.682Z,41.00
2023-04-19T16:51:09.731Z,41.20
2023-04-19T16:53:37.806Z,41.20
2023-04-19T16:56:06.220Z,41.50
2023-04-19T16:58:34.302Z,41.70
2023-04-19T17:01:02.686Z,41.80
2023-04-19T17:03:32.271Z,42.00
2023-04-19T17:06:00.638Z,42.10
2023-04-19T17:08:28.725Z,42.30
2023-04-19T17:10:56.819Z,42.50
2023-04-19T17:13:24.931Z,42.70
2023-04-19T17:15:53.277Z,42.90
2023-04-19T17:18:22.161Z,43.10
2023-04-19T17:20:51.600Z,43.30
2023-04-19T17:23:19.663Z,43.40
2023-04-19T17:25:47.708Z,43.50
2023-04-19T17:28:16.234Z,43.60
2023-04-19T17:30:44.322Z,43.70
2023-04-19T17:33:12.447Z,43.80
2023-04-19T17:35:40.536Z,43.80
2023-04-19T17:38:09.960Z,43.80
2023-04-19T17:40:38.014Z,44.10
2023-04-19T17:43:06.146Z,44.10
2023-04-19T17:45:34.187Z,44.10
2023-04-19T17:48:03.026Z,44.20
2023-04-19T17:50:31.103Z,44.30
2023-04-19T17:52:59.218Z,44.30
2023-04-19T17:55:28.842Z,44.40
2023-04-19T17:57:56.861Z,44.50
2023-04-19T18:00:25.047Z,44.50
2023-04-19T18:02:53.230Z,44.60
2023-04-19T18:05:21.414Z,45.40
2023-04-19T18:07:49.485Z,44.90
2023-04-19T18:10:17.550Z,45.00
2023-04-19T18:12:46.955Z,45.20
2023-04-19T18:15:15.377Z,45.30
2023-04-19T18:17:43.437Z,45.40
2023-04-19T18:20:13.667Z,45.60
2023-04-19T18:22:42.115Z,45.70
2023-04-19T18:25:11.082Z,45.80
2023-04-19T18:27:39.126Z,46.00
2023-04-19T18:30:09.878Z,46.10
2023-04-19T18:32:38.023Z,46.20
2023-04-19T18:35:08.831Z,46.30
2023-04-19T18:37:37.006Z,46.50
2023-04-19T18:40:07.251Z,46.70
2023-04-19T18:42:35.415Z,46.80
2023-04-19T18:45:04.179Z,47.10
2023-04-19T18:47:33.770Z,47.30
2023-04-19T18:50:05.749Z,47.40
2023-04-19T18:52:36.296Z,47.50
2023-04-19T18:55:05.211Z,47.70
2023-04-19T18:57:35.264Z,47.80
2023-04-19T19:00:06.328Z,47.90
2023-04-19T19:02:37.098Z,47.90
2023-04-19T19:05:08.313Z,48.00
2023-04-19T19:07:37.823Z,48.00
2023-04-19T19:12:39.583Z,48.20
2023-04-19T19:15:08.997Z,48.20
2023-04-19T19:17:38.743Z,48.30
2023-04-19T19:20:08.826Z,48.30
2023-04-19T19:22:36.876Z,48.30
2023-04-19T19:25:05.645Z,48.40
2023-04-19T19:27:33.743Z,48.40
2023-04-19T19:30:03.416Z,48.50
2023-04-19T19:32:32.374Z,48.50
2023-04-19T19:35:06.245Z,48.70
2023-04-19T19:37:36.592Z,48.80
2023-04-19T19:40:07.294Z,48.90
2023-04-19T19:42:35.825Z,48.90
2023-04-19T19:45:04.279Z,49.00
2023-04-19T19:47:35.258Z,49.00
2023-04-19T19:50:50.502Z,49.10
2023-04-19T19:52:54.574Z,49.20
2023-04-19T19:55:22.906Z,49.20
2023-04-19T20:00:44.116Z,49.50
2023-04-19T20:03:10.843Z,49.50
2023-04-19T20:05:40.565Z,49.50
2023-04-19T20:08:10.528Z,49.70
2023-04-19T20:10:39.060Z,49.80
2023-04-19T20:13:07.487Z,49.70
2023-04-19T20:15:36.882Z,49.80
2023-04-19T20:18:05.440Z,49.90
2023-04-19T20:20:33.988Z,49.90
2023-04-19T20:23:03.444Z,50.00
2023-04-19T20:25:32.605Z,50.10
2023-04-19T20:28:01.311Z,50.00
2023-04-19T20:30:29.444Z,50.10
2023-04-19T20:32:57.875Z,50.20
2023-04-19T20:35:26.295Z,50.40
2023-04-19T20:37:54.612Z,50.40
2023-04-19T20:40:24.229Z,50.40
2023-04-19T20:42:52.326Z,50.50
2023-04-19T20:45:20.951Z,50.60
2023-04-19T20:47:49.317Z,50.60
2023-04-19T20:50:17.620Z,50.60
2023-04-19T20:52:45.831Z,50.80
2023-04-19T20:55:14.451Z,50.80
2023-04-19T20:57:43.897Z,50.80
2023-04-19T21:00:16.086Z,51.00
2023-04-19T21:02:45.047Z,51.00
2023-04-19T21:05:13.289Z,51.10
2023-04-19T21:07:41.341Z,51.30
2023-04-19T21:10:11.346Z,51.30
2023-04-19T21:12:39.445Z,51.40
2023-04-19T21:15:09.652Z,51.50
2023-04-19T21:17:37.805Z,51.60
2023-04-19T21:20:11.984Z,51.70
2023-04-19T21:22:40.380Z,51.80
2023-04-19T21:25:09.785Z,51.80
2023-04-19T21:27:37.984Z,51.90
2023-04-19T21:30:07.074Z,51.80
2023-04-19T21:32:36.667Z,52.50
2023-04-19T21:35:05.235Z,52.00
2023-04-19T21:37:33.569Z,52.00
2023-04-19T21:40:01.636Z,52.10
2023-04-19T21:42:29.700Z,52.10
2023-04-19T21:44:57.776Z,52.10
2023-04-19T21:47:25.851Z,52.20
2023-04-19T21:49:55.420Z,52.20
2023-04-19T21:52:23.469Z,52.40
2023-04-19T21:54:51.538Z,52.50
2023-04-19T21:57:22.036Z,52.70
2023-04-19T21:59:50.141Z,52.70
2023-04-19T22:02:18.291Z,52.80
2023-04-19T22:04:46.471Z,52.90
2023-04-19T22:07:18.743Z,53.00
2023-04-19T22:09:47.616Z,53.20
2023-04-19T22:12:15.705Z,53.20
2023-04-19T22:14:43.839Z,53.30
2023-04-19T22:17:12.514Z,53.40
2023-04-19T22:19:40.591Z,53.40
2023-04-19T22:22:08.673Z,53.50
2023-04-19T22:24:50.069Z,53.60
2023-04-19T22:27:24.748Z,53.70
2023-04-19T22:29:52.797Z,53.60
2023-04-19T22:32:20.881Z,53.80
2023-04-19T22:34:48.996Z,53.70
2023-04-19T22:37:17.045Z,53.90
2023-04-19T22:39:46.492Z,53.90
2023-04-19T22:42:14.544Z,54.00
2023-04-19T22:44:42.586Z,54.10
2023-04-19T22:47:11.883Z,54.10
2023-04-19T22:49:43.144Z,54.10
2023-04-19T22:52:12.773Z,54.20
2023-04-19T22:54:40.860Z,54.20
2023-04-19T22:57:11.167Z,54.20
2023-04-19T22:59:39.290Z,54.30
2023-04-19T23:02:07.360Z,54.30
2023-04-19T23:04:36.106Z,54.40
2023-04-19T23:07:04.512Z,54.40
2023-04-19T23:09:32.584Z,54.50
2023-04-19T23:12:00.898Z,54.60
2023-04-19T23:14:30.465Z,54.50
2023-04-19T23:16:59.120Z,54.50
2023-04-19T23:19:27.337Z,54.50
2023-04-19T23:21:55.399Z,54.60
2023-04-19T23:24:23.434Z,54.50
2023-04-19T23:26:52.129Z,54.50
2023-04-19T23:29:20.232Z,54.50
2023-04-19T23:31:49.728Z,54.50
2023-04-19T23:34:17.809Z,54.50
2023-04-19T23:36:45.985Z,54.50
2023-04-19T23:39:14.387Z,54.50
2023-04-19T23:41:43.580Z,54.50
2023-04-19T23:44:11.671Z,54.60
2023-04-19T23:46:39.808Z,54.60
2023-04-19T23:49:09.471Z,54.60
2023-04-19T23:51:37.538Z,54.70
2023-04-19T23:54:05.793Z,54.80
2023-04-19T23:56:33.846Z,54.80
2023-04-19T23:59:01.913Z,54.90
